createdAt,value
2014-07-19T00:00:05.296Z,25.8
2014-07-19T00:00:22.921Z,25.8
2014-07-19T00:00:40.561Z,25.8
2014-07-19T00:00:58.827Z,25.8
2014-07-19T00:01:16.470Z,25.8
2014-07-19T00:01:34.095Z,25.8
2014-07-19T00:01:51.751Z,25.8
2014-07-19T00:02:09.377Z,25.8
2014-07-19T00:02:27.002Z,25.7
2014-07-19T00:02:45.268Z,25.8
2014-07-19T00:03:03.674Z,25.8
2014-07-19T00:03:22.082Z,25.8
2014-07-19T00:03:39.707Z,25.8
2014-07-19T00:03:57.348Z,25.8
2014-07-19T00:04:15.616Z,25.8
2014-07-19T00:04:33.257Z,25.8
2014-07-19T00:04:50.898Z,25.8
2014-07-19T00:05:07.898Z,25.8
2014-07-19T00:05:26.181Z,25.8
2014-07-19T00:05:43.181Z,25.8
2014-07-19T00:06:00.821Z,25.8
2014-07-19T00:06:18.448Z,25.8
2014-07-19T00:06:36.089Z,25.8
2014-07-19T00:06:54.480Z,25.8
2014-07-19T00:07:12.120Z,25.8
2014-07-19T00:07:29.121Z,25.8
2014-07-19T00:07:46.121Z,25.8
2014-07-19T00:08:04.528Z,25.8
2014-07-19T00:08:22.171Z,25.8
2014-07-19T00:08:40.421Z,25.8
2014-07-19T00:08:58.062Z,25.8
2014-07-19T00:09:15.843Z,25.8
2014-07-19T00:09:34.095Z,25.8
2014-07-19T00:09:51.736Z,25.8
2014-07-19T00:10:10.001Z,25.8
2014-07-19T00:10:28.269Z,25.8
2014-07-19T00:10:46.675Z,25.8
2014-07-19T00:11:04.316Z,25.8
2014-07-19T00:11:22.582Z,25.8
2014-07-19T00:11:40.973Z,25.8
2014-07-19T00:11:59.239Z,25.8
2014-07-19T00:12:16.864Z,25.8
2014-07-19T00:12:33.881Z,25.8
2014-07-19T00:12:51.506Z,25.8
2014-07-19T00:13:09.288Z,25.8
2014-07-19T00:13:26.291Z,25.8
2014-07-19T00:13:43.931Z,25.8
2014-07-19T00:14:02.197Z,25.7
2014-07-19T00:14:20.462Z,25.7
2014-07-19T00:14:38.729Z,25.7
2014-07-19T00:14:56.979Z,25.7
2014-07-19T00:15:14.620Z,25.8
2014-07-19T00:15:33.012Z,25.8
2014-07-19T00:15:51.278Z,25.7
2014-07-19T00:16:09.544Z,25.7
2014-07-19T00:16:27.809Z,25.7
2014-07-19T00:16:45.453Z,25.7
2014-07-19T00:17:03.734Z,25.6
2014-07-19T00:17:21.984Z,25.6
2014-07-19T00:17:39.626Z,25.7
2014-07-19T00:17:57.266Z,25.7
2014-07-19T00:18:15.516Z,25.7
2014-07-19T00:18:33.784Z,25.7
2014-07-19T00:18:52.050Z,25.7
2014-07-19T00:19:09.690Z,25.7
2014-07-19T00:19:26.706Z,25.7
2014-07-19T00:19:44.958Z,25.6
2014-07-19T00:20:02.598Z,25.6
2014-07-19T00:20:19.598Z,25.6
2014-07-19T00:20:37.241Z,25.6
2014-07-19T00:20:55.507Z,25.7
2014-07-19T00:21:13.772Z,25.6
2014-07-19T00:21:32.163Z,25.6
2014-07-19T00:21:50.446Z,25.7
2014-07-19T00:22:08.712Z,25.7
2014-07-19T00:22:26.977Z,25.7
2014-07-19T00:22:45.229Z,25.7
2014-07-19T00:23:02.870Z,25.6
2014-07-19T00:23:20.511Z,25.7
2014-07-19T00:23:38.292Z,25.6
2014-07-19T00:23:55.919Z,25.6
2014-07-19T00:24:12.935Z,25.7
2014-07-19T00:24:31.325Z,25.6
2014-07-19T00:24:49.593Z,25.7
2014-07-19T00:25:07.233Z,25.7
2014-07-19T00:25:24.858Z,25.7
2014-07-19T00:25:41.874Z,25.7
2014-07-19T00:25:58.893Z,25.7
2014-07-19T00:26:16.533Z,25.7
2014-07-19T00:26:34.174Z,25.8
2014-07-19T00:26:51.316Z,25.8
2014-07-19T00:27:09.706Z,25.8
2014-07-19T00:27:27.972Z,25.8
2014-07-19T00:27:46.253Z,25.8
2014-07-19T00:28:03.896Z,25.8
2014-07-19T00:28:22.146Z,25.7
2014-07-19T00:28:40.411Z,25.7
2014-07-19T00:28:58.054Z,25.7
2014-07-19T00:29:15.679Z,25.6
2014-07-19T00:29:33.320Z,25.6
2014-07-19T00:29:50.960Z,25.6
2014-07-19T00:30:08.587Z,25.6
2014-07-19T00:30:26.993Z,25.6
2014-07-19T00:30:45.259Z,25.6
2014-07-19T00:31:02.902Z,25.5
2014-07-19T00:31:20.542Z,25.5
2014-07-19T00:31:38.808Z,25.5
2014-07-19T00:31:57.075Z,25.5
2014-07-19T00:32:15.340Z,25.5
2014-07-19T00:32:33.606Z,25.4
2014-07-19T00:32:51.231Z,25.4
2014-07-19T00:33:09.015Z,25.4
2014-07-19T00:33:26.640Z,25.4
2014-07-19T00:33:44.281Z,25.4
2014-07-19T00:34:02.547Z,25.4
2014-07-19T00:34:20.813Z,25.4
2014-07-19T00:34:39.204Z,25.4
2014-07-19T00:34:56.847Z,25.4
2014-07-19T00:35:14.488Z,25.4
2014-07-19T00:35:32.753Z,25.3
2014-07-19T00:35:51.019Z,25.3
2014-07-19T00:36:09.287Z,25.3
2014-07-19T00:36:26.912Z,25.3
2014-07-19T00:36:45.177Z,25.3
2014-07-19T00:37:02.820Z,25.3
2014-07-19T00:37:20.586Z,25.2
2014-07-19T00:37:38.226Z,25.2
2014-07-19T00:37:56.617Z,25.3
2014-07-19T00:38:14.884Z,25.2
2014-07-19T00:38:32.525Z,25.3
2014-07-19T00:38:50.150Z,25.3
2014-07-19T00:39:07.792Z,25.3
2014-07-19T00:39:24.807Z,25.3
2014-07-19T00:39:43.057Z,25.3
2014-07-19T00:40:00.075Z,25.3
2014-07-19T00:40:17.716Z,25.3
2014-07-19T00:40:35.981Z,25.3
2014-07-19T00:40:53.747Z,25.2
2014-07-19T00:41:12.014Z,25.3
2014-07-19T00:41:29.655Z,25.2
2014-07-19T00:41:47.921Z,25.2
2014-07-19T00:42:05.563Z,25.2
2014-07-19T00:42:23.829Z,25.2
2014-07-19T00:42:42.095Z,25.1
2014-07-19T00:42:59.737Z,25.1
2014-07-19T00:43:17.378Z,25.2
2014-07-19T00:43:35.003Z,25.2
2014-07-19T00:43:53.268Z,25.2
2014-07-19T00:44:11.536Z,25.2
2014-07-19T00:44:29.208Z,25.2
2014-07-19T00:44:47.614Z,25.2
2014-07-19T00:45:05.382Z,25.2
2014-07-19T00:45:23.022Z,25.2
2014-07-19T00:45:41.288Z,25.2
2014-07-19T00:45:58.946Z,25.2
2014-07-19T00:46:17.196Z,25.2
2014-07-19T00:46:34.837Z,25.1
2014-07-19T00:46:52.478Z,25.1
2014-07-19T00:47:10.744Z,25
2014-07-19T00:47:29.010Z,25
2014-07-19T00:47:47.275Z,24.9
2014-07-19T00:48:04.419Z,24.9
2014-07-19T00:48:22.810Z,24.9
2014-07-19T00:48:41.075Z,25
2014-07-19T00:48:58.716Z,24.9
2014-07-19T00:49:16.983Z,25
2014-07-19T00:49:35.248Z,25
2014-07-19T00:49:53.514Z,25
2014-07-19T00:50:11.907Z,25
2014-07-19T00:50:28.923Z,25.1
2014-07-19T00:50:47.189Z,25.1
2014-07-19T00:51:04.831Z,25.1
2014-07-19T00:51:23.097Z,25.2
2014-07-19T00:51:40.738Z,25.2
2014-07-19T00:51:59.003Z,25.2
2014-07-19T00:52:16.646Z,25.2
2014-07-19T00:52:34.911Z,25.2
2014-07-19T00:52:53.177Z,25.3
2014-07-19T00:53:11.584Z,25.3
2014-07-19T00:53:29.850Z,25.3
2014-07-19T00:53:48.241Z,25.3
2014-07-19T00:54:05.256Z,25.4
2014-07-19T00:54:22.275Z,25.4
2014-07-19T00:54:40.525Z,25.4
2014-07-19T00:54:58.290Z,25.4
2014-07-19T00:55:15.308Z,25.4
2014-07-19T00:55:33.574Z,25.4
2014-07-19T00:55:51.855Z,25.4
2014-07-19T00:56:08.996Z,25.5
2014-07-19T00:56:26.637Z,25.5
2014-07-19T00:56:43.653Z,25.5
2014-07-19T00:57:01.293Z,25.5
2014-07-19T00:57:18.936Z,25.5
2014-07-19T00:57:36.577Z,25.5
2014-07-19T00:57:54.217Z,25.5
2014-07-19T00:58:12.610Z,25.5
2014-07-19T00:58:29.626Z,25.6
2014-07-19T00:58:46.626Z,25.5
2014-07-19T00:59:03.641Z,25.5
2014-07-19T00:59:20.800Z,25.5
2014-07-19T00:59:39.050Z,25.5
2014-07-19T00:59:56.082Z,25.6
2014-07-19T01:00:13.707Z,25.6
2014-07-19T01:00:30.723Z,25.6
2014-07-19T01:00:48.505Z,25.5
2014-07-19T01:01:06.270Z,25.5
2014-07-19T01:01:24.522Z,25.5
2014-07-19T01:01:42.178Z,25.5
2014-07-19T01:02:00.444Z,25.5
2014-07-19T01:02:18.085Z,25.5
2014-07-19T01:02:36.353Z,25.5
2014-07-19T01:02:54.619Z,25.5
2014-07-19T01:03:12.885Z,25.5
2014-07-19T01:03:30.526Z,25.5
2014-07-19T01:03:48.776Z,25.5
2014-07-19T01:04:06.432Z,25.5
2014-07-19T01:04:24.823Z,25.5
2014-07-19T01:04:43.091Z,25.5
2014-07-19T01:05:01.356Z,25.5
2014-07-19T01:05:19.622Z,25.4
2014-07-19T01:05:37.890Z,25.5
2014-07-19T01:05:56.155Z,25.5
2014-07-19T01:06:13.796Z,25.4
2014-07-19T01:06:31.421Z,25.4
2014-07-19T01:06:49.063Z,25.4
2014-07-19T01:07:06.688Z,25.4
2014-07-19T01:07:23.704Z,25.4
2014-07-19T01:07:40.722Z,25.5
2014-07-19T01:07:57.112Z,25.5
2014-07-19T01:08:15.378Z,25.5
2014-07-19T01:08:32.394Z,25.5
2014-07-19T01:08:50.661Z,25.5
2014-07-19T01:09:07.661Z,25.5
2014-07-19T01:09:25.317Z,25.5
2014-07-19T01:09:43.085Z,25.5
2014-07-19T01:10:00.726Z,25.5
2014-07-19T01:10:18.507Z,25.5
2014-07-19T01:10:36.132Z,25.5
2014-07-19T01:10:53.775Z,25.5
2014-07-19T01:11:11.415Z,25.5
2014-07-19T01:11:29.681Z,25.6
2014-07-19T01:11:47.948Z,25.5
2014-07-19T01:12:05.589Z,25.6
2014-07-19T01:12:23.214Z,25.6
2014-07-19T01:12:40.857Z,25.6
2014-07-19T01:12:59.122Z,25.6
2014-07-19T01:13:16.763Z,25.5
2014-07-19T01:13:37.404Z,25.5
2014-07-19T01:13:55.671Z,25.5
2014-07-19T01:14:14.077Z,25.5
2014-07-19T01:14:32.343Z,25.5
2014-07-19T01:14:50.126Z,25.5
2014-07-19T01:15:08.392Z,25.4
2014-07-19T01:15:26.033Z,25.5
2014-07-19T01:15:44.298Z,25.4
2014-07-19T01:16:02.566Z,25.5
2014-07-19T01:16:20.831Z,25.5
2014-07-19T01:16:38.472Z,25.4
2014-07-19T01:16:56.880Z,25.4
2014-07-19T01:17:15.146Z,25.4
2014-07-19T01:17:33.412Z,25.4
2014-07-19T01:17:51.818Z,25.4
2014-07-19T01:18:10.085Z,25.3
2014-07-19T01:18:28.351Z,25.2
2014-07-19T01:18:46.617Z,25.3
2014-07-19T01:19:04.275Z,25.2
2014-07-19T01:19:22.541Z,25.2
2014-07-19T01:19:40.931Z,25.1
2014-07-19T01:19:59.214Z,25.1
2014-07-19T01:20:17.480Z,25.2
2014-07-19T01:20:35.246Z,25.1
2014-07-19T01:20:53.511Z,25.2
2014-07-19T01:21:11.920Z,25.2
2014-07-19T01:21:30.185Z,25.2
2014-07-19T01:21:47.826Z,25.2
2014-07-19T01:22:05.467Z,25.2
2014-07-19T01:22:22.483Z,25.2
2014-07-19T01:22:40.749Z,25.2
2014-07-19T01:22:59.016Z,25.1
2014-07-19T01:23:17.282Z,25.1
2014-07-19T01:23:35.548Z,25.1
2014-07-19T01:23:52.563Z,25.1
2014-07-19T01:24:10.831Z,25.1
2014-07-19T01:24:28.471Z,25.1
2014-07-19T01:24:46.112Z,25.1
2014-07-19T01:25:04.380Z,25.1
2014-07-19T01:25:22.645Z,25.1
2014-07-19T01:25:40.911Z,25.1
2014-07-19T01:25:59.179Z,25.1
2014-07-19T01:26:16.835Z,25.1
2014-07-19T01:26:35.225Z,25.1
2014-07-19T01:26:52.241Z,25.1
2014-07-19T01:27:09.243Z,25.1
2014-07-19T01:27:27.524Z,25.1
2014-07-19T01:27:45.149Z,25.1
2014-07-19T01:28:02.792Z,25.1
2014-07-19T01:28:21.058Z,25.1
2014-07-19T01:28:39.323Z,25.1
2014-07-19T01:28:57.589Z,25.1
2014-07-19T01:29:15.856Z,25.1
2014-07-19T01:29:33.513Z,25
2014-07-19T01:29:51.138Z,25.1
2014-07-19T01:30:09.405Z,25.1
2014-07-19T01:30:27.812Z,25.1
2014-07-19T01:30:45.437Z,25
2014-07-19T01:31:03.704Z,25.1
2014-07-19T01:31:22.110Z,25.1
2014-07-19T01:31:40.376Z,25.1
2014-07-19T01:31:58.645Z,25.1
2014-07-19T01:32:16.910Z,25.1
2014-07-19T01:32:34.676Z,25
2014-07-19T01:32:51.692Z,25.1
2014-07-19T01:33:09.958Z,25.1
2014-07-19T01:33:28.224Z,25
2014-07-19T01:33:45.864Z,25.1
2014-07-19T01:34:04.132Z,25
2014-07-19T01:34:21.132Z,25.1
2014-07-19T01:34:39.398Z,25.1
2014-07-19T01:34:57.663Z,25.1
2014-07-19T01:35:15.931Z,25
2014-07-19T01:35:34.197Z,25
2014-07-19T01:35:52.587Z,25
2014-07-19T01:36:10.370Z,25
2014-07-19T01:36:28.636Z,25
2014-07-19T01:36:46.902Z,25.1
2014-07-19T01:37:05.152Z,25.1
2014-07-19T01:37:22.811Z,25.1
2014-07-19T01:37:39.811Z,25.1
2014-07-19T01:37:58.077Z,25.1
2014-07-19T01:38:15.093Z,25.1
2014-07-19T01:38:32.718Z,25.1
2014-07-19T01:38:50.359Z,25.1
2014-07-19T01:39:08.765Z,25.1
2014-07-19T01:39:26.408Z,25.1
2014-07-19T01:39:44.673Z,25.1
2014-07-19T01:40:02.923Z,25.1
2014-07-19T01:40:21.206Z,25.1
2014-07-19T01:40:39.456Z,25.1
2014-07-19T01:40:57.721Z,25
2014-07-19T01:41:15.364Z,25.1
2014-07-19T01:41:33.004Z,25
2014-07-19T01:41:51.270Z,25
2014-07-19T01:42:09.536Z,25
2014-07-19T01:42:27.929Z,25
2014-07-19T01:42:46.336Z,25
2014-07-19T01:43:04.601Z,24.9
2014-07-19T01:43:22.869Z,25
2014-07-19T01:43:40.509Z,24.9
2014-07-19T01:43:58.759Z,25
2014-07-19T01:44:15.168Z,25
2014-07-19T01:44:32.824Z,25
2014-07-19T01:44:50.480Z,25
2014-07-19T01:45:06.871Z,25
2014-07-19T01:45:23.904Z,25
2014-07-19T01:45:42.170Z,25.1
2014-07-19T01:46:00.576Z,25.1
2014-07-19T01:46:18.873Z,25.1
2014-07-19T01:46:36.531Z,25.2
2014-07-19T01:46:54.203Z,25.2
2014-07-19T01:47:11.234Z,25.2
2014-07-19T01:47:29.533Z,25.3
2014-07-19T01:47:47.330Z,25.3
2014-07-19T01:48:05.002Z,25.3
2014-07-19T01:48:22.644Z,25.3
2014-07-19T01:48:39.644Z,25.4
2014-07-19T01:48:57.926Z,25.4
2014-07-19T01:49:15.566Z,25.4
2014-07-19T01:49:32.583Z,25.4
2014-07-19T01:49:50.849Z,25.4
2014-07-19T01:50:09.114Z,25.4
2014-07-19T01:50:27.383Z,25.5
2014-07-19T01:50:45.789Z,25.5
2014-07-19T01:51:04.055Z,25.5
2014-07-19T01:51:21.680Z,25.5
2014-07-19T01:51:38.697Z,25.5
2014-07-19T01:51:56.338Z,25.5
2014-07-19T01:52:14.744Z,25.5
2014-07-19T01:52:32.995Z,25.6
2014-07-19T01:52:51.276Z,25.6
2014-07-19T01:53:08.917Z,25.6
2014-07-19T01:53:26.683Z,25.6
2014-07-19T01:53:44.951Z,25.6
2014-07-19T01:54:02.576Z,25.6
2014-07-19T01:54:20.842Z,25.6
2014-07-19T01:54:39.109Z,25.6
2014-07-19T01:54:56.734Z,25.7
2014-07-19T01:55:14.999Z,25.7
2014-07-19T01:55:32.626Z,25.7
2014-07-19T01:55:50.267Z,25.7
2014-07-19T01:56:07.907Z,25.7
2014-07-19T01:56:25.673Z,25.7
2014-07-19T01:56:43.941Z,25.7
2014-07-19T01:57:01.581Z,25.7
2014-07-19T01:57:19.222Z,25.7
2014-07-19T01:57:36.225Z,25.7
2014-07-19T01:57:53.866Z,25.7
2014-07-19T01:58:11.506Z,25.7
2014-07-19T01:58:29.147Z,25.7
2014-07-19T01:58:46.773Z,25.7
2014-07-19T01:59:05.038Z,25.7
2014-07-19T01:59:23.304Z,25.8
2014-07-19T01:59:41.556Z,25.8
2014-07-19T01:59:59.947Z,25.8
2014-07-19T02:00:18.228Z,25.8
2014-07-19T02:00:36.480Z,25.8
2014-07-19T02:00:54.121Z,25.8
2014-07-19T02:01:11.761Z,25.8
2014-07-19T02:01:30.027Z,25.8
2014-07-19T02:01:47.669Z,25.8
2014-07-19T02:02:05.435Z,25.8
2014-07-19T02:02:23.060Z,25.8
2014-07-19T02:02:41.468Z,25.8
2014-07-19T02:02:59.734Z,25.8
2014-07-19T02:03:17.375Z,25.8
2014-07-19T02:03:35.015Z,25.8
2014-07-19T02:03:52.658Z,25.8
2014-07-19T02:04:10.923Z,25.8
2014-07-19T02:04:29.314Z,25.8
2014-07-19T02:04:47.582Z,25.8
2014-07-19T02:05:05.972Z,25.8
2014-07-19T02:05:24.254Z,25.8
2014-07-19T02:05:41.880Z,25.9
2014-07-19T02:06:00.145Z,25.9
2014-07-19T02:06:17.786Z,25.9
2014-07-19T02:06:36.051Z,25.9
2014-07-19T02:06:54.336Z,25.9
2014-07-19T02:07:11.336Z,25.9
2014-07-19T02:07:29.601Z,25.9
2014-07-19T02:07:47.869Z,25.9
2014-07-19T02:08:06.135Z,25.9
2014-07-19T02:08:24.400Z,25.9
2014-07-19T02:08:42.667Z,25.9
2014-07-19T02:09:01.057Z,25.9
2014-07-19T02:09:18.839Z,25.9
2014-07-19T02:09:36.464Z,25.9
2014-07-19T02:09:54.248Z,25.9
2014-07-19T02:10:12.498Z,25.9
2014-07-19T02:10:30.139Z,25.9
2014-07-19T02:10:48.406Z,25.9
2014-07-19T02:11:06.047Z,25.9
2014-07-19T02:11:24.312Z,25.9
2014-07-19T02:11:41.953Z,25.9
2014-07-19T02:12:00.220Z,25.9
2014-07-19T02:12:18.485Z,25.9
2014-07-19T02:12:35.485Z,25.9
2014-07-19T02:12:52.503Z,25.9
2014-07-19T02:13:10.769Z,26
2014-07-19T02:13:29.034Z,26
2014-07-19T02:13:46.659Z,26
2014-07-19T02:14:04.927Z,26
2014-07-19T02:14:23.192Z,26
2014-07-19T02:14:41.458Z,26
2014-07-19T02:14:59.085Z,26
2014-07-19T02:15:17.491Z,26
2014-07-19T02:15:35.741Z,26
2014-07-19T02:15:53.384Z,26
2014-07-19T02:16:11.634Z,26
2014-07-19T02:16:29.900Z,26
2014-07-19T02:16:48.165Z,26
2014-07-19T02:17:05.168Z,26
2014-07-19T02:17:22.809Z,26
2014-07-19T02:17:41.074Z,26
2014-07-19T02:17:58.700Z,26
2014-07-19T02:18:17.107Z,26
2014-07-19T02:18:35.357Z,26
2014-07-19T02:18:52.999Z,26
2014-07-19T02:19:10.640Z,26
2014-07-19T02:19:28.406Z,26
2014-07-19T02:19:45.421Z,26
2014-07-19T02:20:02.439Z,26
2014-07-19T02:20:20.689Z,26
2014-07-19T02:20:38.954Z,26
2014-07-19T02:20:57.220Z,26
2014-07-19T02:21:14.222Z,26
2014-07-19T02:21:31.863Z,26
2014-07-19T02:21:49.503Z,26
2014-07-19T02:22:07.771Z,26
2014-07-19T02:22:26.162Z,26
2014-07-19T02:22:43.802Z,26
2014-07-19T02:23:02.132Z,26
2014-07-19T02:23:20.476Z,26
2014-07-19T02:23:38.820Z,26
2014-07-19T02:23:56.492Z,26
2014-07-19T02:24:14.758Z,26
2014-07-19T02:24:32.383Z,26.1
2014-07-19T02:24:50.024Z,26.1
2014-07-19T02:25:08.307Z,26.1
2014-07-19T02:25:26.557Z,26.1
2014-07-19T02:25:44.198Z,26.1
2014-07-19T02:26:01.840Z,26.1
2014-07-19T02:26:19.465Z,26
2014-07-19T02:26:37.106Z,26.1
2014-07-19T02:26:54.731Z,26.1
2014-07-19T02:27:12.999Z,26.1
2014-07-19T02:27:29.374Z,26.1
2014-07-19T02:27:47.655Z,26.1
2014-07-19T02:28:06.048Z,26.1
2014-07-19T02:28:23.688Z,26.1
2014-07-19T02:28:40.704Z,26.1
2014-07-19T02:28:58.972Z,26.1
2014-07-19T02:29:16.613Z,26.1
2014-07-19T02:29:34.863Z,26.1
2014-07-19T02:29:53.129Z,26.1
2014-07-19T02:30:10.770Z,26.1
2014-07-19T02:30:28.411Z,26.1
2014-07-19T02:30:46.677Z,26.1
2014-07-19T02:31:04.320Z,26.1
2014-07-19T02:31:21.945Z,26.1
2014-07-19T02:31:40.211Z,26.1
2014-07-19T02:31:57.976Z,26.1
2014-07-19T02:32:15.760Z,26.1
2014-07-19T02:32:33.400Z,26.1
2014-07-19T02:32:51.666Z,26.1
2014-07-19T02:33:09.292Z,26.1
2014-07-19T02:33:27.558Z,26.1
2014-07-19T02:33:45.808Z,26.1
2014-07-19T02:34:02.200Z,26.1
2014-07-19T02:34:19.825Z,26.1
2014-07-19T02:34:37.466Z,26.1
2014-07-19T02:34:55.731Z,26.1
2014-07-19T02:35:14.124Z,26.1
2014-07-19T02:35:32.390Z,26.1
2014-07-19T02:35:50.796Z,26.1
2014-07-19T02:36:08.424Z,26.1
2014-07-19T02:36:26.690Z,26.1
2014-07-19T02:36:43.690Z,26.1
2014-07-19T02:37:01.330Z,26.2
2014-07-19T02:37:18.956Z,26.2
2014-07-19T02:37:37.237Z,26.2
2014-07-19T02:37:55.487Z,26.2
2014-07-19T02:38:13.755Z,26.2
2014-07-19T02:38:32.021Z,26.2
2014-07-19T02:38:50.286Z,26.2
2014-07-19T02:39:08.554Z,26.1
2014-07-19T02:39:26.195Z,26.2
2014-07-19T02:39:44.460Z,26.2
2014-07-19T02:40:02.726Z,26.2
2014-07-19T02:40:20.353Z,26.2
2014-07-19T02:40:38.134Z,26.2
2014-07-19T02:40:56.384Z,26.2
2014-07-19T02:41:14.167Z,26.2
2014-07-19T02:41:31.792Z,26.2
2014-07-19T02:41:50.199Z,26.2
2014-07-19T02:42:07.199Z,26.2
2014-07-19T02:42:24.966Z,26.2
2014-07-19T02:42:43.232Z,26.2
2014-07-19T02:43:01.013Z,26.2
2014-07-19T02:43:18.781Z,26.2
2014-07-19T02:43:37.046Z,26.2
2014-07-19T02:43:55.437Z,26.2
2014-07-19T02:44:13.062Z,26.2
2014-07-19T02:44:31.330Z,26.2
2014-07-19T02:44:48.345Z,26.2
2014-07-19T02:45:06.736Z,26.2
2014-07-19T02:45:23.738Z,26.2
2014-07-19T02:45:42.019Z,26.2
2014-07-19T02:45:59.644Z,26.2
2014-07-19T02:46:17.910Z,26.2
2014-07-19T02:46:35.068Z,26.2
2014-07-19T02:46:53.318Z,26.2
2014-07-19T02:47:11.584Z,26.2
2014-07-19T02:47:29.851Z,26.2
2014-07-19T02:47:47.492Z,26.2
2014-07-19T02:48:05.117Z,26.2
2014-07-19T02:48:22.757Z,26.2
2014-07-19T02:48:40.400Z,26.2
2014-07-19T02:48:58.041Z,26.2
2014-07-19T02:49:16.291Z,26.2
2014-07-19T02:49:34.558Z,26.2
2014-07-19T02:49:52.824Z,26.2
2014-07-19T02:50:09.840Z,26.2
2014-07-19T02:50:27.480Z,26.2
2014-07-19T02:50:45.873Z,26.2
2014-07-19T02:51:03.513Z,26.2
2014-07-19T02:51:21.138Z,26.2
2014-07-19T02:51:38.797Z,26.2
2014-07-19T02:51:56.437Z,26.3
2014-07-19T02:52:14.078Z,26.2
2014-07-19T02:52:32.469Z,26.3
2014-07-19T02:52:49.470Z,26.3
2014-07-19T02:53:07.110Z,26.3
2014-07-19T02:53:25.376Z,26.3
2014-07-19T02:53:43.769Z,26.3
2014-07-19T02:54:02.035Z,26.3
2014-07-19T02:54:19.051Z,26.3
2014-07-19T02:54:37.318Z,26.3
2014-07-19T02:54:55.568Z,26.3
2014-07-19T02:55:13.209Z,26.3
2014-07-19T02:55:31.475Z,26.3
2014-07-19T02:55:49.102Z,26.3
2014-07-19T02:56:07.367Z,26.3
2014-07-19T02:56:25.008Z,26.3
2014-07-19T02:56:43.275Z,26.3
2014-07-19T02:57:00.900Z,26.3
2014-07-19T02:57:19.166Z,26.3
2014-07-19T02:57:36.807Z,26.3
2014-07-19T02:57:55.199Z,26.3
2014-07-19T02:58:12.840Z,26.3
2014-07-19T02:58:31.106Z,26.3
2014-07-19T02:58:49.373Z,26.3
2014-07-19T02:59:07.639Z,26.3
2014-07-19T02:59:24.639Z,26.3
2014-07-19T02:59:42.279Z,26.3
2014-07-19T03:00:00.547Z,26.3
2014-07-19T03:00:18.938Z,26.3
2014-07-19T03:00:37.203Z,26.3
2014-07-19T03:00:55.470Z,26.3
2014-07-19T03:01:13.736Z,26.3
2014-07-19T03:01:32.001Z,26.3
2014-07-19T03:01:50.270Z,26.3
2014-07-19T03:02:07.285Z,26.3
2014-07-19T03:02:25.551Z,26.3
2014-07-19T03:02:43.817Z,26.3
2014-07-19T03:03:00.834Z,26.3
2014-07-19T03:03:17.850Z,26.3
2014-07-19T03:03:35.491Z,26.3
2014-07-19T03:03:53.758Z,26.3
2014-07-19T03:04:10.774Z,26.3
2014-07-19T03:04:29.039Z,26.3
2014-07-19T03:04:46.680Z,26.3
2014-07-19T03:05:04.948Z,26.3
2014-07-19T03:05:23.213Z,26.3
2014-07-19T03:05:41.479Z,26.3
2014-07-19T03:05:59.886Z,26.3
2014-07-19T03:06:17.527Z,26.3
2014-07-19T03:06:35.167Z,26.3
2014-07-19T03:06:52.935Z,26.3
2014-07-19T03:07:11.341Z,26.3
2014-07-19T03:07:29.107Z,26.3
2014-07-19T03:07:47.373Z,26.3
2014-07-19T03:08:05.015Z,26.3
2014-07-19T03:08:22.656Z,26.3
2014-07-19T03:08:40.296Z,26.3
2014-07-19T03:08:58.064Z,26.3
2014-07-19T03:09:15.705Z,26.3
2014-07-19T03:09:32.080Z,26.3
2014-07-19T03:09:50.377Z,26.3
2014-07-19T03:10:08.707Z,26.3
2014-07-19T03:10:26.441Z,26.3
2014-07-19T03:10:44.785Z,26.3
2014-07-19T03:11:03.052Z,26.3
2014-07-19T03:11:21.318Z,26.3
2014-07-19T03:11:39.724Z,26.3
2014-07-19T03:11:57.974Z,26.3
2014-07-19T03:12:15.117Z,26.3
2014-07-19T03:12:32.898Z,26.3
2014-07-19T03:12:51.164Z,26.3
2014-07-19T03:13:07.541Z,26.3
2014-07-19T03:13:25.806Z,26.3
2014-07-19T03:13:43.447Z,26.3
2014-07-19T03:14:01.715Z,26.3
2014-07-19T03:14:19.965Z,26.3
2014-07-19T03:14:37.605Z,26.4
2014-07-19T03:14:55.246Z,26.3
2014-07-19T03:15:13.514Z,26.3
2014-07-19T03:15:31.779Z,26.3
2014-07-19T03:15:50.045Z,26.4
2014-07-19T03:16:08.312Z,26.3
2014-07-19T03:16:26.078Z,26.3
2014-07-19T03:16:44.344Z,26.3
2014-07-19T03:17:01.985Z,26.4
2014-07-19T03:17:20.392Z,26.3
2014-07-19T03:17:38.642Z,26.4
2014-07-19T03:17:56.298Z,26.4
2014-07-19T03:18:14.551Z,26.4
2014-07-19T03:18:32.191Z,26.4
2014-07-19T03:18:50.457Z,26.4
2014-07-19T03:19:08.724Z,26.4
2014-07-19T03:19:27.114Z,26.4
2014-07-19T03:19:44.896Z,26.4
2014-07-19T03:20:03.161Z,26.4
2014-07-19T03:20:21.554Z,26.4
2014-07-19T03:20:39.960Z,26.3
2014-07-19T03:20:58.226Z,26.4
2014-07-19T03:21:15.854Z,26.3
2014-07-19T03:21:34.135Z,26.4
2014-07-19T03:21:51.760Z,26.4
2014-07-19T03:22:10.026Z,26.4
2014-07-19T03:22:28.417Z,26.4
2014-07-19T03:22:46.683Z,26.4
2014-07-19T03:23:04.948Z,26.4
2014-07-19T03:23:23.217Z,26.4
2014-07-19T03:23:40.858Z,26.4
2014-07-19T03:23:59.108Z,26.4
2014-07-19T03:24:16.748Z,26.4
2014-07-19T03:24:34.391Z,26.4
2014-07-19T03:24:52.797Z,26.4
2014-07-19T03:25:11.063Z,26.4
2014-07-19T03:25:29.330Z,26.4
2014-07-19T03:25:47.596Z,26.4
2014-07-19T03:26:05.862Z,26.4
2014-07-19T03:26:23.643Z,26.4
2014-07-19T03:26:41.286Z,26.4
2014-07-19T03:26:59.551Z,26.4
2014-07-19T03:27:17.207Z,26.4
2014-07-19T03:27:35.475Z,26.4
2014-07-19T03:27:53.116Z,26.4
2014-07-19T03:28:10.756Z,26.4
2014-07-19T03:28:27.756Z,26.4
2014-07-19T03:28:46.165Z,26.4
2014-07-19T03:29:04.430Z,26.4
2014-07-19T03:29:22.071Z,26.4
2014-07-19T03:29:39.698Z,26.4
2014-07-19T03:29:57.338Z,26.4
2014-07-19T03:30:14.979Z,26.4
2014-07-19T03:30:31.995Z,26.4
2014-07-19T03:30:50.262Z,26.4
2014-07-19T03:31:07.903Z,26.4
2014-07-19T03:31:26.169Z,26.4
2014-07-19T03:31:44.436Z,26.4
2014-07-19T03:32:02.717Z,26.4
2014-07-19T03:32:20.967Z,26.4
2014-07-19T03:32:39.249Z,26.4
2014-07-19T03:32:56.891Z,26.4
2014-07-19T03:33:15.157Z,26.4
2014-07-19T03:33:33.423Z,26.4
2014-07-19T03:33:51.065Z,26.4
2014-07-19T03:34:09.346Z,26.4
2014-07-19T03:34:27.112Z,26.4
2014-07-19T03:34:44.755Z,26.4
2014-07-19T03:35:02.520Z,26.4
2014-07-19T03:35:20.786Z,26.4
2014-07-19T03:35:38.427Z,26.4
2014-07-19T03:35:56.693Z,26.4
2014-07-19T03:36:14.959Z,26.4
2014-07-19T03:36:33.224Z,26.4
2014-07-19T03:36:51.493Z,26.4
2014-07-19T03:37:09.274Z,26.4
2014-07-19T03:37:26.899Z,26.4
2014-07-19T03:37:45.183Z,26.4
2014-07-19T03:38:03.573Z,26.4
2014-07-19T03:38:21.979Z,26.4
2014-07-19T03:38:39.620Z,26.4
2014-07-19T03:38:57.888Z,26.4
2014-07-19T03:39:16.294Z,26.4
2014-07-19T03:39:34.560Z,26.4
2014-07-19T03:39:52.186Z,26.4
2014-07-19T03:40:09.201Z,26.4
2014-07-19T03:40:27.482Z,26.4
2014-07-19T03:40:45.748Z,26.4
2014-07-19T03:41:04.016Z,26.5
2014-07-19T03:41:21.656Z,26.4
2014-07-19T03:41:39.922Z,26.5
2014-07-19T03:41:57.566Z,26.5
2014-07-19T03:42:14.581Z,26.5
2014-07-19T03:42:32.347Z,26.5
2014-07-19T03:42:49.988Z,26.4
2014-07-19T03:43:08.238Z,26.5
2014-07-19T03:43:26.504Z,26.5
2014-07-19T03:43:44.785Z,26.5
2014-07-19T03:44:03.054Z,26.5
2014-07-19T03:44:20.695Z,26.5
2014-07-19T03:44:38.320Z,26.5
2014-07-19T03:44:55.961Z,26.5
2014-07-19T03:45:13.602Z,26.5
2014-07-19T03:45:31.867Z,26.5
2014-07-19T03:45:50.133Z,26.5
2014-07-19T03:46:07.776Z,26.5
2014-07-19T03:46:26.041Z,26.5
2014-07-19T03:46:43.698Z,26.5
2014-07-19T03:47:00.840Z,26.5
2014-07-19T03:47:17.981Z,26.5
2014-07-19T03:47:36.246Z,26.5
2014-07-19T03:47:54.512Z,26.5
2014-07-19T03:48:12.156Z,26.5
2014-07-19T03:48:30.421Z,26.5
2014-07-19T03:48:48.062Z,26.5
2014-07-19T03:49:06.330Z,26.5
2014-07-19T03:49:24.095Z,26.5
2014-07-19T03:49:41.111Z,26.5
2014-07-19T03:49:59.377Z,26.5
2014-07-19T03:50:17.643Z,26.5
2014-07-19T03:50:36.049Z,26.5
2014-07-19T03:50:54.315Z,26.5
2014-07-19T03:51:12.583Z,26.5
2014-07-19T03:51:30.223Z,26.5
2014-07-19T03:51:48.629Z,26.5
2014-07-19T03:52:06.897Z,26.5
2014-07-19T03:52:25.288Z,26.5
2014-07-19T03:52:43.553Z,26.5
2014-07-19T03:53:00.069Z,26.5
2014-07-19T03:53:17.712Z,26.5
2014-07-19T03:53:35.352Z,26.5
2014-07-19T03:53:52.368Z,26.5
2014-07-19T03:54:10.635Z,26.5
2014-07-19T03:54:28.901Z,26.5
2014-07-19T03:54:46.682Z,26.5
2014-07-19T03:55:04.323Z,26.5
2014-07-19T03:55:22.591Z,26.5
2014-07-19T03:55:39.591Z,26.5
2014-07-19T03:55:56.606Z,26.5
2014-07-19T03:56:13.624Z,26.5
2014-07-19T03:56:31.249Z,26.5
2014-07-19T03:56:49.530Z,26.5
2014-07-19T03:57:07.796Z,26.5
2014-07-19T03:57:26.188Z,26.5
2014-07-19T03:57:43.829Z,26.5
2014-07-19T03:58:01.470Z,26.5
2014-07-19T03:58:19.878Z,26.5
2014-07-19T03:58:37.534Z,26.5
2014-07-19T03:58:55.159Z,26.5
2014-07-19T03:59:12.815Z,26.5
2014-07-19T03:59:31.083Z,26.5
2014-07-19T03:59:48.083Z,26.5